sensor_id;sensor_type;location;lat;lon;timestamp;temperature;humidity
35559;DHT22;21661;50.794;-1.066;2022-09-09T00:00:33;16.20;99.90
35559;DHT22;21661;50.794;-1.066;2022-09-09T00:03:36;16.20;99.90
35559;DHT22;21661;50.794;-1.066;2022-09-09T00:06:09;16.30;99.90
35559;DHT22;21661;50.794;-1.066;2022-09-09T00:08:49;16.30;99.90
35559;DHT22;21661;50.794;-1.066;2022-09-09T00:11:26;16.30;99.90
35559;DHT22;21661;50.794;-1.066;2022-09-09T00:13:53;16.30;99.90
35559;DHT22;21661;50.794;-1.066;2022-09-09T00:16:25;16.30;99.90
35559;DHT22;21661;50.794;-1.066;2022-09-09T00:21:37;16.30;99.90
35559;DHT22;21661;50.794;-1.066;2022-09-09T00:24:24;16.30;99.90
35559;DHT22;21661;50.794;-1.066;2022-09-09T00:26:56;16.30;99.90
35559;DHT22;21661;50.794;-1.066;2022-09-09T00:32:15;16.20;99.90
35559;DHT22;21661;50.794;-1.066;2022-09-09T00:34:52;16.20;99.90
35559;DHT22;21661;50.794;-1.066;2022-09-09T00:37:20;16.20;99.90
35559;DHT22;21661;50.794;-1.066;2022-09-09T00:39:48;16.10;99.90
35559;DHT22;21661;50.794;-1.066;2022-09-09T00:42:25;16.10;99.90
35559;DHT22;21661;50.794;-1.066;2022-09-09T00:56:06;16.10;99.90
35559;DHT22;21661;50.794;-1.066;2022-09-09T00:58:34;16.10;99.90
35559;DHT22;21661;50.794;-1.066;2022-09-09T01:06:20;16.10;99.90
35559;DHT22;21661;50.794;-1.066;2022-09-09T01:17:25;16.10;99.90
35559;DHT22;21661;50.794;-1.066;2022-09-09T01:22:33;16.10;99.90
35559;DHT22;21661;50.794;-1.066;2022-09-09T01:28:09;16.10;99.90
35559;DHT22;21661;50.794;-1.066;2022-09-09T01:30:39;16.20;99.90
35559;DHT22;21661;50.794;-1.066;2022-09-09T01:33:13;16.20;99.90
35559;DHT22;21661;50.794;-1.066;2022-09-09T01:35:59;16.20;99.90
35559;DHT22;21661;50.794;-1.066;2022-09-09T01:38:28;16.20;99.90
35559;DHT22;21661;50.794;-1.066;2022-09-09T01:40:54;16.20;99.90
35559;DHT22;21661;50.794;-1.066;2022-09-09T01:43:21;16.20;99.90
35559;DHT22;21661;50.794;-1.066;2022-09-09T01:45:49;16.20;99.90
35559;DHT22;21661;50.794;-1.066;2022-09-09T01:48:18;16.20;99.90
35559;DHT22;21661;50.794;-1.066;2022-09-09T01:50:44;16.20;99.90
35559;DHT22;21661;50.794;-1.066;2022-09-09T01:53:10;16.20;99.90
35559;DHT22;21661;50.794;-1.066;2022-09-09T01:55:41;16.20;99.90
35559;DHT22;21661;50.794;-1.066;2022-09-09T02:00:45;16.20;99.90
35559;DHT22;21661;50.794;-1.066;2022-09-09T02:03:25;16.20;99.90
35559;DHT22;21661;50.794;-1.066;2022-09-09T02:06:38;16.20;99.90
35559;DHT22;21661;50.794;-1.066;2022-09-09T02:08:49;16.20;99.90
35559;DHT22;21661;50.794;-1.066;2022-09-09T02:11:19;16.20;99.90
35559;DHT22;21661;50.794;-1.066;2022-09-09T02:13:48;16.20;99.90
35559;DHT22;21661;50.794;-1.066;2022-09-09T02:16:31;16.20;99.90
35559;DHT22;21661;50.794;-1.066;2022-09-09T02:21:29;16.20;99.90
35559;DHT22;21661;50.794;-1.066;2022-09-09T02:23:58;16.20;99.90
35559;DHT22;21661;50.794;-1.066;2022-09-09T02:26:25;16.20;99.90
35559;DHT22;21661;50.794;-1.066;2022-09-09T02:28:54;16.20;99.90
35559;DHT22;21661;50.794;-1.066;2022-09-09T02:31:22;16.20;99.90
35559;DHT22;21661;50.794;-1.066;2022-09-09T02:33:55;16.20;99.90
35559;DHT22;21661;50.794;-1.066;2022-09-09T02:36:24;16.20;99.90
35559;DHT22;21661;50.794;-1.066;2022-09-09T02:38:52;16.20;99.90
35559;DHT22;21661;50.794;-1.066;2022-09-09T02:41:33;16.20;99.90
35559;DHT22;21661;50.794;-1.066;2022-09-09T02:43:59;16.20;99.90
35559;DHT22;21661;50.794;-1.066;2022-09-09T02:46:37;16.20;99.90
35559;DHT22;21661;50.794;-1.066;2022-09-09T02:49:15;16.20;99.90
35559;DHT22;21661;50.794;-1.066;2022-09-09T02:52:07;16.20;99.90
35559;DHT22;21661;50.794;-1.066;2022-09-09T02:54:35;16.20;99.90
35559;DHT22;21661;50.794;-1.066;2022-09-09T02:57:22;16.20;99.90
35559;DHT22;21661;50.794;-1.066;2022-09-09T02:59:49;16.10;99.90
35559;DHT22;21661;50.794;-1.066;2022-09-09T03:02:15;16.10;99.90
35559;DHT22;21661;50.794;-1.066;2022-09-09T03:04:41;16.10;99.90
35559;DHT22;21661;50.794;-1.066;2022-09-09T03:07:10;16.10;99.90
35559;DHT22;21661;50.794;-1.066;2022-09-09T03:09:36;16.10;99.90
35559;DHT22;21661;50.794;-1.066;2022-09-09T03:12:01;16.10;99.90
35559;DHT22;21661;50.794;-1.066;2022-09-09T03:14:29;16.00;99.90
35559;DHT22;21661;50.794;-1.066;2022-09-09T03:16:56;16.10;99.90
35559;DHT22;21661;50.794;-1.066;2022-09-09T03:19:23;16.00;99.90
35559;DHT22;21661;50.794;-1.066;2022-09-09T03:21:49;16.00;99.90
35559;DHT22;21661;50.794;-1.066;2022-09-09T03:24:15;16.00;99.90
35559;DHT22;21661;50.794;-1.066;2022-09-09T03:26:42;16.00;99.90
35559;DHT22;21661;50.794;-1.066;2022-09-09T03:29:11;16.00;99.90
35559;DHT22;21661;50.794;-1.066;2022-09-09T03:31:38;16.00;99.90
35559;DHT22;21661;50.794;-1.066;2022-09-09T03:34:04;16.00;99.90
35559;DHT22;21661;50.794;-1.066;2022-09-09T03:36:30;16.00;99.90
35559;DHT22;21661;50.794;-1.066;2022-09-09T03:38:56;16.00;99.90
35559;DHT22;21661;50.794;-1.066;2022-09-09T03:41:22;16.00;99.90
35559;DHT22;21661;50.794;-1.066;2022-09-09T03:43:52;16.00;99.90
35559;DHT22;21661;50.794;-1.066;2022-09-09T03:46:20;16.00;99.90
35559;DHT22;21661;50.794;-1.066;2022-09-09T03:48:45;16.00;99.90
35559;DHT22;21661;50.794;-1.066;2022-09-09T03:51:11;16.00;99.90
35559;DHT22;21661;50.794;-1.066;2022-09-09T03:53:37;16.10;99.90
35559;DHT22;21661;50.794;-1.066;2022-09-09T03:56:04;16.10;99.90
35559;DHT22;21661;50.794;-1.066;2022-09-09T03:58:33;16.10;99.90
35559;DHT22;21661;50.794;-1.066;2022-09-09T04:01:00;16.10;99.90
35559;DHT22;21661;50.794;-1.066;2022-09-09T04:03:26;16.10;99.90
35559;DHT22;21661;50.794;-1.066;2022-09-09T04:05:52;16.10;99.90
35559;DHT22;21661;50.794;-1.066;2022-09-09T04:08:19;16.10;99.90
35559;DHT22;21661;50.794;-1.066;2022-09-09T04:10:46;16.10;99.90
35559;DHT22;21661;50.794;-1.066;2022-09-09T04:13:13;16.10;99.90
35559;DHT22;21661;50.794;-1.066;2022-09-09T04:15:40;16.10;99.90
35559;DHT22;21661;50.794;-1.066;2022-09-09T04:18:06;16.10;99.90
35559;DHT22;21661;50.794;-1.066;2022-09-09T04:20:31;16.10;99.90
35559;DHT22;21661;50.794;-1.066;2022-09-09T04:22:58;16.10;99.90
35559;DHT22;21661;50.794;-1.066;2022-09-09T04:25:23;16.10;99.90
35559;DHT22;21661;50.794;-1.066;2022-09-09T04:27:57;16.10;99.90
35559;DHT22;21661;50.794;-1.066;2022-09-09T04:30:24;16.10;99.90
35559;DHT22;21661;50.794;-1.066;2022-09-09T04:32:50;16.10;99.90
35559;DHT22;21661;50.794;-1.066;2022-09-09T04:35:16;16.10;99.90
35559;DHT22;21661;50.794;-1.066;2022-09-09T04:37:42;16.10;99.90
35559;DHT22;21661;50.794;-1.066;2022-09-09T04:40:09;16.10;99.90
35559;DHT22;21661;50.794;-1.066;2022-09-09T04:42:38;16.10;99.90
35559;DHT22;21661;50.794;-1.066;2022-09-09T04:45:05;16.10;99.90
35559;DHT22;21661;50.794;-1.066;2022-09-09T04:47:32;16.10;99.90
35559;DHT22;21661;50.794;-1.066;2022-09-09T04:49:59;16.10;99.90
35559;DHT22;21661;50.794;-1.066;2022-09-09T04:52:25;16.00;99.90
35559;DHT22;21661;50.794;-1.066;2022-09-09T04:54:51;16.00;99.90
35559;DHT22;21661;50.794;-1.066;2022-09-09T04:57:19;16.10;99.90
35559;DHT22;21661;50.794;-1.066;2022-09-09T04:59:45;16.00;99.90
35559;DHT22;21661;50.794;-1.066;2022-09-09T05:02:11;16.00;99.90
35559;DHT22;21661;50.794;-1.066;2022-09-09T05:04:37;16.10;99.90
35559;DHT22;21661;50.794;-1.066;2022-09-09T05:07:02;16.00;99.90
35559;DHT22;21661;50.794;-1.066;2022-09-09T05:09:28;16.10;99.90
35559;DHT22;21661;50.794;-1.066;2022-09-09T05:11:54;16.00;99.90
35559;DHT22;21661;50.794;-1.066;2022-09-09T05:14:21;16.00;99.90
35559;DHT22;21661;50.794;-1.066;2022-09-09T05:16:47;16.10;99.90
35559;DHT22;21661;50.794;-1.066;2022-09-09T05:19:15;16.10;99.90
35559;DHT22;21661;50.794;-1.066;2022-09-09T05:21:40;16.10;99.90
35559;DHT22;21661;50.794;-1.066;2022-09-09T05:24:07;16.10;99.90
35559;DHT22;21661;50.794;-1.066;2022-09-09T05:26:32;16.10;99.90
35559;DHT22;21661;50.794;-1.066;2022-09-09T05:28:58;16.10;99.90
35559;DHT22;21661;50.794;-1.066;2022-09-09T05:31:25;16.10;99.90
35559;DHT22;21661;50.794;-1.066;2022-09-09T05:33:53;16.10;99.90
35559;DHT22;21661;50.794;-1.066;2022-09-09T05:36:20;16.10;99.90
35559;DHT22;21661;50.794;-1.066;2022-09-09T05:38:46;16.10;99.90
35559;DHT22;21661;50.794;-1.066;2022-09-09T05:41:12;16.10;99.90
35559;DHT22;21661;50.794;-1.066;2022-09-09T05:43:41;16.10;99.90
35559;DHT22;21661;50.794;-1.066;2022-09-09T05:46:09;16.10;99.90
35559;DHT22;21661;50.794;-1.066;2022-09-09T05:48:37;16.10;99.90
35559;DHT22;21661;50.794;-1.066;2022-09-09T05:51:04;16.10;99.90
35559;DHT22;21661;50.794;-1.066;2022-09-09T05:53:30;16.00;99.90
35559;DHT22;21661;50.794;-1.066;2022-09-09T05:56:19;16.00;99.90
35559;DHT22;21661;50.794;-1.066;2022-09-09T05:58:46;16.10;99.90
35559;DHT22;21661;50.794;-1.066;2022-09-09T06:01:34;16.10;99.90
35559;DHT22;21661;50.794;-1.066;2022-09-09T06:04:00;16.10;99.90
35559;DHT22;21661;50.794;-1.066;2022-09-09T06:06:30;16.10;99.90
35559;DHT22;21661;50.794;-1.066;2022-09-09T06:08:57;16.10;99.90
35559;DHT22;21661;50.794;-1.066;2022-09-09T06:11:30;16.10;99.90
35559;DHT22;21661;50.794;-1.066;2022-09-09T06:13:56;16.10;99.90
35559;DHT22;21661;50.794;-1.066;2022-09-09T06:16:24;16.20;99.90
35559;DHT22;21661;50.794;-1.066;2022-09-09T06:18:51;16.20;99.90
35559;DHT22;21661;50.794;-1.066;2022-09-09T06:21:18;16.20;99.90
35559;DHT22;21661;50.794;-1.066;2022-09-09T06:23:44;16.20;99.90
35559;DHT22;21661;50.794;-1.066;2022-09-09T06:26:13;16.20;99.90
35559;DHT22;21661;50.794;-1.066;2022-09-09T06:28:40;16.20;99.90
35559;DHT22;21661;50.794;-1.066;2022-09-09T06:31:10;16.30;99.90
35559;DHT22;21661;50.794;-1.066;2022-09-09T06:33:38;16.30;99.90
35559;DHT22;21661;50.794;-1.066;2022-09-09T06:36:07;16.30;99.90
35559;DHT22;21661;50.794;-1.066;2022-09-09T06:38:35;16.30;99.90
35559;DHT22;21661;50.794;-1.066;2022-09-09T06:41:01;16.30;99.90
35559;DHT22;21661;50.794;-1.066;2022-09-09T06:43:27;16.30;99.90
35559;DHT22;21661;50.794;-1.066;2022-09-09T06:46:06;16.30;99.90
35559;DHT22;21661;50.794;-1.066;2022-09-09T06:48:33;16.30;99.90
35559;DHT22;21661;50.794;-1.066;2022-09-09T06:51:20;16.30;99.90
35559;DHT22;21661;50.794;-1.066;2022-09-09T06:53:53;16.30;99.90
35559;DHT22;21661;50.794;-1.066;2022-09-09T06:56:21;16.30;99.90
35559;DHT22;21661;50.794;-1.066;2022-09-09T06:58:49;16.30;99.90
35559;DHT22;21661;50.794;-1.066;2022-09-09T07:01:16;16.40;99.90
35559;DHT22;21661;50.794;-1.066;2022-09-09T07:03:46;16.50;99.90
35559;DHT22;21661;50.794;-1.066;2022-09-09T07:06:15;16.50;99.90
35559;DHT22;21661;50.794;-1.066;2022-09-09T07:08:42;16.50;99.90
35559;DHT22;21661;50.794;-1.066;2022-09-09T07:11:08;16.50;99.90
35559;DHT22;21661;50.794;-1.066;2022-09-09T07:13:35;16.50;99.90
35559;DHT22;21661;50.794;-1.066;2022-09-09T07:16:11;16.50;99.90
35559;DHT22;21661;50.794;-1.066;2022-09-09T07:18:39;16.50;99.90
35559;DHT22;21661;50.794;-1.066;2022-09-09T07:21:05;16.50;99.90
35559;DHT22;21661;50.794;-1.066;2022-09-09T07:23:32;16.60;99.90
35559;DHT22;21661;50.794;-1.066;2022-09-09T07:25:58;16.60;99.90
35559;DHT22;21661;50.794;-1.066;2022-09-09T07:28:24;16.60;99.90
35559;DHT22;21661;50.794;-1.066;2022-09-09T07:30:59;16.70;99.90
35559;DHT22;21661;50.794;-1.066;2022-09-09T07:33:27;16.70;99.90
35559;DHT22;21661;50.794;-1.066;2022-09-09T07:35:53;16.70;99.90
35559;DHT22;21661;50.794;-1.066;2022-09-09T07:38:20;16.70;99.90
35559;DHT22;21661;50.794;-1.066;2022-09-09T07:40:46;16.80;99.90
35559;DHT22;21661;50.794;-1.066;2022-09-09T07:43:12;16.90;99.90
35559;DHT22;21661;50.794;-1.066;2022-09-09T07:45:38;16.90;99.90
35559;DHT22;21661;50.794;-1.066;2022-09-09T07:48:04;16.90;99.90
35559;DHT22;21661;50.794;-1.066;2022-09-09T07:50:30;16.90;99.90
35559;DHT22;21661;50.794;-1.066;2022-09-09T07:52:56;16.90;99.90
35559;DHT22;21661;50.794;-1.066;2022-09-09T07:55:22;17.00;99.90
35559;DHT22;21661;50.794;-1.066;2022-09-09T07:57:53;17.00;99.90
35559;DHT22;21661;50.794;-1.066;2022-09-09T08:00:19;17.10;99.90
35559;DHT22;21661;50.794;-1.066;2022-09-09T08:02:47;17.10;99.90
35559;DHT22;21661;50.794;-1.066;2022-09-09T08:05:13;17.10;99.90
35559;DHT22;21661;50.794;-1.066;2022-09-09T08:07:39;17.10;99.90
35559;DHT22;21661;50.794;-1.066;2022-09-09T08:10:05;17.10;99.90
35559;DHT22;21661;50.794;-1.066;2022-09-09T08:12:31;17.10;99.90
35559;DHT22;21661;50.794;-1.066;2022-09-09T08:14:57;17.10;99.90
35559;DHT22;21661;50.794;-1.066;2022-09-09T08:17:23;17.10;99.90
35559;DHT22;21661;50.794;-1.066;2022-09-09T08:19:48;17.10;99.90
35559;DHT22;21661;50.794;-1.066;2022-09-09T08:22:14;17.10;99.90
35559;DHT22;21661;50.794;-1.066;2022-09-09T08:24:39;16.90;99.90
35559;DHT22;21661;50.794;-1.066;2022-09-09T08:27:06;17.00;99.90
35559;DHT22;21661;50.794;-1.066;2022-09-09T08:29:32;17.00;99.90
35559;DHT22;21661;50.794;-1.066;2022-09-09T08:31:58;17.00;99.90
35559;DHT22;21661;50.794;-1.066;2022-09-09T08:34:25;17.10;99.90
35559;DHT22;21661;50.794;-1.066;2022-09-09T08:36:52;17.20;99.90
35559;DHT22;21661;50.794;-1.066;2022-09-09T08:39:20;17.20;99.90
35559;DHT22;21661;50.794;-1.066;2022-09-09T08:57:52;17.70;99.90
35559;DHT22;21661;50.794;-1.066;2022-09-09T09:00:19;17.70;99.90
35559;DHT22;21661;50.794;-1.066;2022-09-09T09:02:52;17.80;99.90
35559;DHT22;21661;50.794;-1.066;2022-09-09T09:08:31;17.90;99.90
35559;DHT22;21661;50.794;-1.066;2022-09-09T09:10:58;17.90;99.90
35559;DHT22;21661;50.794;-1.066;2022-09-09T09:19:11;18.20;99.90
35559;DHT22;21661;50.794;-1.066;2022-09-09T09:21:39;18.20;99.90
35559;DHT22;21661;50.794;-1.066;2022-09-09T09:24:16;18.30;99.90
35559;DHT22;21661;50.794;-1.066;2022-09-09T09:26:43;18.30;99.90
35559;DHT22;21661;50.794;-1.066;2022-09-09T09:29:18;18.40;99.90
35559;DHT22;21661;50.794;-1.066;2022-09-09T09:31:55;18.40;99.90
35559;DHT22;21661;50.794;-1.066;2022-09-09T09:34:22;18.50;99.90
35559;DHT22;21661;50.794;-1.066;2022-09-09T09:36:53;18.50;99.90
35559;DHT22;21661;50.794;-1.066;2022-09-09T09:41:49;18.50;99.90
35559;DHT22;21661;50.794;-1.066;2022-09-09T09:44:28;18.50;99.90
35559;DHT22;21661;50.794;-1.066;2022-09-09T09:47:12;18.60;99.90
35559;DHT22;21661;50.794;-1.066;2022-09-09T09:49:39;18.60;99.90
35559;DHT22;21661;50.794;-1.066;2022-09-09T09:52:06;18.60;99.90
35559;DHT22;21661;50.794;-1.066;2022-09-09T09:54:42;18.60;99.90
35559;DHT22;21661;50.794;-1.066;2022-09-09T09:57:17;18.60;99.90
35559;DHT22;21661;50.794;-1.066;2022-09-09T09:59:43;18.60;99.90
35559;DHT22;21661;50.794;-1.066;2022-09-09T10:02:20;18.50;99.90
35559;DHT22;21661;50.794;-1.066;2022-09-09T10:04:46;18.50;99.90
35559;DHT22;21661;50.794;-1.066;2022-09-09T10:07:15;18.50;99.90
35559;DHT22;21661;50.794;-1.066;2022-09-09T10:09:42;18.60;99.90
35559;DHT22;21661;50.794;-1.066;2022-09-09T10:15:02;18.80;99.90
35559;DHT22;21661;50.794;-1.066;2022-09-09T10:17:53;18.80;99.90
35559;DHT22;21661;50.794;-1.066;2022-09-09T10:22:53;18.80;99.90
35559;DHT22;21661;50.794;-1.066;2022-09-09T10:25:48;18.80;99.90
35559;DHT22;21661;50.794;-1.066;2022-09-09T10:36:47;19.00;99.90
35559;DHT22;21661;50.794;-1.066;2022-09-09T10:44:47;19.20;99.90
35559;DHT22;21661;50.794;-1.066;2022-09-09T10:53:21;19.20;99.90
35559;DHT22;21661;50.794;-1.066;2022-09-09T10:55:53;19.00;99.90
35559;DHT22;21661;50.794;-1.066;2022-09-09T11:04:25;18.80;99.90
35559;DHT22;21661;50.794;-1.066;2022-09-09T11:06:54;18.80;99.90
35559;DHT22;21661;50.794;-1.066;2022-09-09T11:09:33;18.80;99.90
35559;DHT22;21661;50.794;-1.066;2022-09-09T11:12:02;18.70;99.90
35559;DHT22;21661;50.794;-1.066;2022-09-09T11:14:37;18.80;99.90
35559;DHT22;21661;50.794;-1.066;2022-09-09T11:20:13;18.50;99.90
35559;DHT22;21661;50.794;-1.066;2022-09-09T11:23:34;18.50;99.90
35559;DHT22;21661;50.794;-1.066;2022-09-09T11:25:43;18.30;99.90
35559;DHT22;21661;50.794;-1.066;2022-09-09T11:44:40;17.90;99.90
35559;DHT22;21661;50.794;-1.066;2022-09-09T11:47:24;17.90;99.90
35559;DHT22;21661;50.794;-1.066;2022-09-09T11:49:54;18.00;99.90
35559;DHT22;21661;50.794;-1.066;2022-09-09T11:52:25;18.00;99.90
35559;DHT22;21661;50.794;-1.066;2022-09-09T11:54:54;18.00;99.90
35559;DHT22;21661;50.794;-1.066;2022-09-09T11:57:26;18.10;99.90
35559;DHT22;21661;50.794;-1.066;2022-09-09T11:59:56;18.30;99.90
35559;DHT22;21661;50.794;-1.066;2022-09-09T12:02:22;18.30;99.90
35559;DHT22;21661;50.794;-1.066;2022-09-09T12:05:08;18.30;99.90
35559;DHT22;21661;50.794;-1.066;2022-09-09T12:07:50;18.30;99.90
35559;DHT22;21661;50.794;-1.066;2022-09-09T12:10:34;18.30;99.90
35559;DHT22;21661;50.794;-1.066;2022-09-09T12:15:49;18.60;99.90
35559;DHT22;21661;50.794;-1.066;2022-09-09T12:21:08;18.70;99.90
35559;DHT22;21661;50.794;-1.066;2022-09-09T12:23:59;18.80;99.90
35559;DHT22;21661;50.794;-1.066;2022-09-09T12:29:14;19.00;99.90
35559;DHT22;21661;50.794;-1.066;2022-09-09T12:31:54;19.20;99.90
35559;DHT22;21661;50.794;-1.066;2022-09-09T12:37:22;19.50;99.90
35559;DHT22;21661;50.794;-1.066;2022-09-09T12:39:55;19.70;99.90
35559;DHT22;21661;50.794;-1.066;2022-09-09T12:42:21;19.70;99.90
35559;DHT22;21661;50.794;-1.066;2022-09-09T12:44:52;19.80;99.90
35559;DHT22;21661;50.794;-1.066;2022-09-09T12:47:20;19.70;99.90
35559;DHT22;21661;50.794;-1.066;2022-09-09T12:49:47;19.70;99.90
35559;DHT22;21661;50.794;-1.066;2022-09-09T12:52:17;19.40;99.90
35559;DHT22;21661;50.794;-1.066;2022-09-09T12:54:46;19.30;99.90
35559;DHT22;21661;50.794;-1.066;2022-09-09T12:57:13;19.30;99.90
35559;DHT22;21661;50.794;-1.066;2022-09-09T12:59:42;19.40;99.90
35559;DHT22;21661;50.794;-1.066;2022-09-09T13:04:42;19.50;99.90
35559;DHT22;21661;50.794;-1.066;2022-09-09T13:07:08;19.50;99.90
35559;DHT22;21661;50.794;-1.066;2022-09-09T13:09:35;19.60;99.90
35559;DHT22;21661;50.794;-1.066;2022-09-09T13:12:01;19.60;99.90
35559;DHT22;21661;50.794;-1.066;2022-09-09T13:14:34;19.50;99.90
35559;DHT22;21661;50.794;-1.066;2022-09-09T13:17:04;19.30;99.90
35559;DHT22;21661;50.794;-1.066;2022-09-09T13:19:35;19.00;99.90
35559;DHT22;21661;50.794;-1.066;2022-09-09T13:22:33;18.70;99.90
35559;DHT22;21661;50.794;-1.066;2022-09-09T13:25:24;18.40;99.90
35559;DHT22;21661;50.794;-1.066;2022-09-09T13:28:05;18.10;99.90
35559;DHT22;21661;50.794;-1.066;2022-09-09T13:30:34;17.80;99.90
35559;DHT22;21661;50.794;-1.066;2022-09-09T13:35:32;17.40;99.90
35559;DHT22;21661;50.794;-1.066;2022-09-09T13:38:06;17.30;99.90
35559;DHT22;21661;50.794;-1.066;2022-09-09T13:40:33;17.20;99.90
35559;DHT22;21661;50.794;-1.066;2022-09-09T13:42:59;17.30;99.90
35559;DHT22;21661;50.794;-1.066;2022-09-09T13:45:26;17.30;99.90
35559;DHT22;21661;50.794;-1.066;2022-09-09T13:47:55;17.40;99.90
35559;DHT22;21661;50.794;-1.066;2022-09-09T13:50:21;17.50;99.90
35559;DHT22;21661;50.794;-1.066;2022-09-09T13:52:48;17.60;99.90
35559;DHT22;21661;50.794;-1.066;2022-09-09T13:55:15;17.70;99.90
35559;DHT22;21661;50.794;-1.066;2022-09-09T13:57:59;18.00;99.90
35559;DHT22;21661;50.794;-1.066;2022-09-09T14:00:31;18.10;99.90
35559;DHT22;21661;50.794;-1.066;2022-09-09T14:02:57;18.30;99.90
35559;DHT22;21661;50.794;-1.066;2022-09-09T14:05:24;18.40;99.90
35559;DHT22;21661;50.794;-1.066;2022-09-09T14:07:50;18.50;99.90
35559;DHT22;21661;50.794;-1.066;2022-09-09T14:10:16;18.50;99.90
35559;DHT22;21661;50.794;-1.066;2022-09-09T14:12:42;18.60;99.90
35559;DHT22;21661;50.794;-1.066;2022-09-09T14:15:10;18.80;99.90
35559;DHT22;21661;50.794;-1.066;2022-09-09T14:17:36;18.90;99.90
35559;DHT22;21661;50.794;-1.066;2022-09-09T14:20:05;19.00;99.90
35559;DHT22;21661;50.794;-1.066;2022-09-09T14:22:36;19.10;99.90
35559;DHT22;21661;50.794;-1.066;2022-09-09T14:25:02;19.20;99.90
35559;DHT22;21661;50.794;-1.066;2022-09-09T14:27:28;19.40;99.90
35559;DHT22;21661;50.794;-1.066;2022-09-09T14:29:54;19.60;99.90
35559;DHT22;21661;50.794;-1.066;2022-09-09T14:32:20;19.60;99.90
35559;DHT22;21661;50.794;-1.066;2022-09-09T14:34:46;19.80;99.90
35559;DHT22;21661;50.794;-1.066;2022-09-09T14:37:15;19.90;99.90
35559;DHT22;21661;50.794;-1.066;2022-09-09T14:39:41;19.90;99.90
35559;DHT22;21661;50.794;-1.066;2022-09-09T14:42:10;19.80;99.90
35559;DHT22;21661;50.794;-1.066;2022-09-09T14:44:37;19.80;99.90
35559;DHT22;21661;50.794;-1.066;2022-09-09T14:47:04;19.70;99.90
35559;DHT22;21661;50.794;-1.066;2022-09-09T14:49:30;19.80;99.90
35559;DHT22;21661;50.794;-1.066;2022-09-09T14:51:56;19.80;99.90
35559;DHT22;21661;50.794;-1.066;2022-09-09T14:54:22;19.90;99.90
35559;DHT22;21661;50.794;-1.066;2022-09-09T14:56:48;20.00;99.90
35559;DHT22;21661;50.794;-1.066;2022-09-09T14:59:14;20.00;99.90
35559;DHT22;21661;50.794;-1.066;2022-09-09T15:01:40;19.70;99.90
35559;DHT22;21661;50.794;-1.066;2022-09-09T15:04:06;19.60;99.90
35559;DHT22;21661;50.794;-1.066;2022-09-09T15:06:35;19.60;99.90
35559;DHT22;21661;50.794;-1.066;2022-09-09T15:09:04;19.70;99.90
35559;DHT22;21661;50.794;-1.066;2022-09-09T15:11:33;19.80;99.90
35559;DHT22;21661;50.794;-1.066;2022-09-09T15:14:03;19.80;99.90
35559;DHT22;21661;50.794;-1.066;2022-09-09T15:16:29;19.90;99.90
35559;DHT22;21661;50.794;-1.066;2022-09-09T15:18:56;19.90;99.90
35559;DHT22;21661;50.794;-1.066;2022-09-09T15:21:24;19.90;99.90
35559;DHT22;21661;50.794;-1.066;2022-09-09T15:23:50;20.00;99.90
35559;DHT22;21661;50.794;-1.066;2022-09-09T15:26:17;20.00;99.90
35559;DHT22;21661;50.794;-1.066;2022-09-09T15:28:44;20.00;99.90
35559;DHT22;21661;50.794;-1.066;2022-09-09T15:33:40;19.60;99.90
35559;DHT22;21661;50.794;-1.066;2022-09-09T15:36:14;19.40;99.90
35559;DHT22;21661;50.794;-1.066;2022-09-09T15:38:40;19.40;99.90
35559;DHT22;21661;50.794;-1.066;2022-09-09T15:41:06;19.30;99.90
35559;DHT22;21661;50.794;-1.066;2022-09-09T15:43:31;19.30;99.90
35559;DHT22;21661;50.794;-1.066;2022-09-09T15:46:23;19.10;99.90
35559;DHT22;21661;50.794;-1.066;2022-09-09T15:48:53;19.00;99.90
35559;DHT22;21661;50.794;-1.066;2022-09-09T15:51:20;19.10;99.90
35559;DHT22;21661;50.794;-1.066;2022-09-09T15:53:46;19.10;99.90
35559;DHT22;21661;50.794;-1.066;2022-09-09T15:56:11;19.00;99.90
35559;DHT22;21661;50.794;-1.066;2022-09-09T15:58:37;19.00;99.90
35559;DHT22;21661;50.794;-1.066;2022-09-09T16:01:07;19.00;99.90
35559;DHT22;21661;50.794;-1.066;2022-09-09T16:03:37;19.00;99.90
35559;DHT22;21661;50.794;-1.066;2022-09-09T16:06:04;18.90;99.90
35559;DHT22;21661;50.794;-1.066;2022-09-09T16:08:38;18.90;99.90
35559;DHT22;21661;50.794;-1.066;2022-09-09T16:11:10;18.90;99.90
35559;DHT22;21661;50.794;-1.066;2022-09-09T16:13:36;18.90;99.90
35559;DHT22;21661;50.794;-1.066;2022-09-09T16:16:03;18.90;99.90
35559;DHT22;21661;50.794;-1.066;2022-09-09T16:18:34;18.90;99.90
35559;DHT22;21661;50.794;-1.066;2022-09-09T16:21:00;18.90;99.90
35559;DHT22;21661;50.794;-1.066;2022-09-09T16:23:26;18.80;99.90
35559;DHT22;21661;50.794;-1.066;2022-09-09T16:25:56;18.80;99.90
35559;DHT22;21661;50.794;-1.066;2022-09-09T16:28:22;18.80;99.90
35559;DHT22;21661;50.794;-1.066;2022-09-09T16:30:48;18.80;99.90
35559;DHT22;21661;50.794;-1.066;2022-09-09T16:33:15;18.70;99.90
35559;DHT22;21661;50.794;-1.066;2022-09-09T16:35:41;18.80;99.90
35559;DHT22;21661;50.794;-1.066;2022-09-09T16:38:07;18.80;99.90
35559;DHT22;21661;50.794;-1.066;2022-09-09T16:40:37;18.80;99.90
35559;DHT22;21661;50.794;-1.066;2022-09-09T16:43:04;18.70;99.90
35559;DHT22;21661;50.794;-1.066;2022-09-09T16:45:31;18.70;99.90
35559;DHT22;21661;50.794;-1.066;2022-09-09T16:47:58;18.70;99.90
35559;DHT22;21661;50.794;-1.066;2022-09-09T16:50:24;18.70;99.90
35559;DHT22;21661;50.794;-1.066;2022-09-09T16:52:51;18.70;99.90
35559;DHT22;21661;50.794;-1.066;2022-09-09T16:55:17;18.70;99.90
35559;DHT22;21661;50.794;-1.066;2022-09-09T16:57:46;18.60;99.90
35559;DHT22;21661;50.794;-1.066;2022-09-09T17:00:14;18.60;99.90
35559;DHT22;21661;50.794;-1.066;2022-09-09T17:02:40;18.60;99.90
35559;DHT22;21661;50.794;-1.066;2022-09-09T17:05:06;18.60;99.90
35559;DHT22;21661;50.794;-1.066;2022-09-09T17:07:31;18.50;99.90
35559;DHT22;21661;50.794;-1.066;2022-09-09T17:09:57;18.50;99.90
35559;DHT22;21661;50.794;-1.066;2022-09-09T17:12:23;18.50;99.90
35559;DHT22;21661;50.794;-1.066;2022-09-09T17:14:49;18.60;99.90
35559;DHT22;21661;50.794;-1.066;2022-09-09T17:17:15;18.60;99.90
35559;DHT22;21661;50.794;-1.066;2022-09-09T17:19:42;18.60;99.90
35559;DHT22;21661;50.794;-1.066;2022-09-09T17:22:08;18.50;99.90
35559;DHT22;21661;50.794;-1.066;2022-09-09T17:24:34;18.50;99.90
35559;DHT22;21661;50.794;-1.066;2022-09-09T17:27:00;18.60;99.90
35559;DHT22;21661;50.794;-1.066;2022-09-09T17:29:26;18.50;99.90
35559;DHT22;21661;50.794;-1.066;2022-09-09T17:31:52;18.50;99.90
35559;DHT22;21661;50.794;-1.066;2022-09-09T17:34:18;18.50;99.90
35559;DHT22;21661;50.794;-1.066;2022-09-09T17:36:43;18.60;99.90
35559;DHT22;21661;50.794;-1.066;2022-09-09T17:39:09;18.50;99.90
35559;DHT22;21661;50.794;-1.066;2022-09-09T17:41:37;18.50;99.90
35559;DHT22;21661;50.794;-1.066;2022-09-09T17:44:04;18.50;99.90
35559;DHT22;21661;50.794;-1.066;2022-09-09T17:46:34;18.40;99.90